sensor_id;sensor_type;location;lat;lon;timestamp;pressure;altitude;pressure_sealevel;temperature;humidity
75192;BME280;63771;52.580;9.734;2023-07-24T00:00:01;100098.34;;;18.40;92.22
75192;BME280;63771;52.580;9.734;2023-07-24T00:02:26;100086.31;;;18.40;91.63
75192;BME280;63771;52.580;9.734;2023-07-24T00:04:51;100085.41;;;18.40;92.33
75192;BME280;63771;52.580;9.734;2023-07-24T00:07:17;100082.88;;;18.41;92.51
75192;BME280;63771;52.580;9.734;2023-07-24T00:09:42;100077.63;;;18.38;93.04
75192;BME280;63771;52.580;9.734;2023-07-24T00:12:08;100074.16;;;18.38;91.82
75192;BME280;63771;52.580;9.734;2023-07-24T00:14:33;100071.56;;;18.38;92.90
75192;BME280;63771;52.580;9.734;2023-07-24T00:16:58;100066.28;;;18.35;93.02
75192;BME280;63771;52.580;9.734;2023-07-24T00:19:24;100077.53;;;18.37;93.09
75192;BME280;63771;52.580;9.734;2023-07-24T00:21:49;100067.97;;;18.34;93.57
75192;BME280;63771;52.580;9.734;2023-07-24T00:24:14;100067.84;;;18.31;93.99
75192;BME280;63771;52.580;9.734;2023-07-24T00:26:39;100062.69;;;18.31;94.53
75192;BME280;63771;52.580;9.734;2023-07-24T00:29:05;100065.34;;;18.33;93.53
75192;BME280;63771;52.580;9.734;2023-07-24T00:31:30;100066.28;;;18.35;93.04
75192;BME280;63771;52.580;9.734;2023-07-24T00:33:55;100071.44;;;18.35;93.39
75192;BME280;63771;52.580;9.734;2023-07-24T00:36:21;100068.84;;;18.35;93.54
75192;BME280;63771;52.580;9.734;2023-07-24T00:38:46;100061.09;;;18.35;94.87
75192;BME280;63771;52.580;9.734;2023-07-24T00:41:11;100063.75;;;18.36;94.24
75192;BME280;63771;52.580;9.734;2023-07-24T00:43:37;100060.41;;;18.39;94.12
75192;BME280;63771;52.580;9.734;2023-07-24T00:46:02;100057.00;;;18.40;94.04
75192;BME280;63771;52.580;9.734;2023-07-24T00:48:28;100063.00;;;18.39;93.63
75192;BME280;63771;52.580;9.734;2023-07-24T00:50:53;100063.81;;;18.38;94.28
75192;BME280;63771;52.580;9.734;2023-07-24T00:53:19;100063.75;;;18.36;94.50
75192;BME280;63771;52.580;9.734;2023-07-24T00:55:45;100062.88;;;18.36;94.37
75192;BME280;63771;52.580;9.734;2023-07-24T00:58:11;100059.41;;;18.35;95.41
75192;BME280;63771;52.580;9.734;2023-07-24T01:00:40;100057.59;;;18.33;95.34
75192;BME280;63771;52.580;9.734;2023-07-24T01:03:05;100059.44;;;18.37;94.15
75192;BME280;63771;52.580;9.734;2023-07-24T01:05:31;100055.16;;;18.37;95.29
75192;BME280;63771;52.580;9.734;2023-07-24T01:07:56;100062.16;;;18.40;94.01
75192;BME280;63771;52.580;9.734;2023-07-24T01:10:22;100053.53;;;18.39;94.60
75192;BME280;63771;52.580;9.734;2023-07-24T01:13:05;100056.13;;;18.39;94.19
75192;BME280;63771;52.580;9.734;2023-07-24T01:15:34;100057.84;;;18.39;93.69
75192;BME280;63771;52.580;9.734;2023-07-24T01:18:09;100058.66;;;18.38;93.29
75192;BME280;63771;52.580;9.734;2023-07-24T01:20:43;100056.06;;;18.38;94.03
75192;BME280;63771;52.580;9.734;2023-07-24T01:25:58;100055.94;;;18.35;94.06
75192;BME280;63771;52.580;9.734;2023-07-24T01:28:25;100050.59;;;18.30;93.73
75192;BME280;63771;52.580;9.734;2023-07-24T01:30:50;100046.13;;;18.26;94.50
75192;BME280;63771;52.580;9.734;2023-07-24T01:33:16;100053.16;;;18.30;93.62
75192;BME280;63771;52.580;9.734;2023-07-24T01:35:43;100043.47;;;18.24;94.88
75192;BME280;63771;52.580;9.734;2023-07-24T01:38:13;100040.03;;;18.24;94.39
75192;BME280;63771;52.580;9.734;2023-07-24T01:40:42;100038.38;;;18.26;93.08
75192;BME280;63771;52.580;9.734;2023-07-24T01:43:08;100039.19;;;18.25;93.45
75192;BME280;63771;52.580;9.734;2023-07-24T01:45:33;100042.66;;;18.25;93.44
75192;BME280;63771;52.580;9.734;2023-07-24T01:47:59;100033.97;;;18.23;93.27
75192;BME280;63771;52.580;9.734;2023-07-24T01:50:25;100036.41;;;18.20;93.43
75192;BME280;63771;52.580;9.734;2023-07-24T01:52:50;100037.38;;;18.22;92.79
75192;BME280;63771;52.580;9.734;2023-07-24T01:55:15;100026.00;;;18.17;93.82
75192;BME280;63771;52.580;9.734;2023-07-24T01:57:41;100039.78;;;18.18;93.99
75192;BME280;63771;52.580;9.734;2023-07-24T02:00:06;100029.38;;;18.16;93.28
75192;BME280;63771;52.580;9.734;2023-07-24T02:02:32;100039.59;;;18.13;94.66
75192;BME280;63771;52.580;9.734;2023-07-24T02:04:57;100044.63;;;18.10;94.27
75192;BME280;63771;52.580;9.734;2023-07-24T02:07:22;100032.53;;;18.09;94.81
75192;BME280;63771;52.580;9.734;2023-07-24T02:09:48;100041.22;;;18.11;94.00
75192;BME280;63771;52.580;9.734;2023-07-24T02:12:13;100029.13;;;18.10;94.95
75192;BME280;63771;52.580;9.734;2023-07-24T02:14:38;100027.22;;;18.06;95.33
75192;BME280;63771;52.580;9.734;2023-07-24T02:17:04;100019.56;;;18.08;93.88
75192;BME280;63771;52.580;9.734;2023-07-24T02:19:29;100021.28;;;18.07;94.67
75192;BME280;63771;52.580;9.734;2023-07-24T02:21:54;100014.41;;;18.08;94.33
75192;BME280;63771;52.580;9.734;2023-07-24T02:24:20;100023.03;;;18.08;94.55
75192;BME280;63771;52.580;9.734;2023-07-24T02:26:45;100021.28;;;18.07;94.48
75192;BME280;63771;52.580;9.734;2023-07-24T02:29:10;100010.84;;;18.06;94.49
75192;BME280;63771;52.580;9.734;2023-07-24T02:31:36;100020.31;;;18.05;93.62
75192;BME280;63771;52.580;9.734;2023-07-24T02:34:01;100020.31;;;18.05;94.05
75192;BME280;63771;52.580;9.734;2023-07-24T02:36:26;100023.72;;;18.04;93.55
75192;BME280;63771;52.580;9.734;2023-07-24T02:38:52;100031.41;;;18.03;93.72
75192;BME280;63771;52.580;9.734;2023-07-24T02:41:17;100027.00;;;18.00;93.78
75192;BME280;63771;52.580;9.734;2023-07-24T02:43:43;100032.09;;;17.98;94.08
75192;BME280;63771;52.580;9.734;2023-07-24T02:46:08;100035.44;;;17.96;93.41
75192;BME280;63771;52.580;9.734;2023-07-24T02:48:33;100030.28;;;17.96;93.49
75192;BME280;63771;52.580;9.734;2023-07-24T02:50:58;100025.00;;;17.93;93.65
75192;BME280;63771;52.580;9.734;2023-07-24T02:53:24;100032.72;;;17.93;93.69
75192;BME280;63771;52.580;9.734;2023-07-24T02:55:49;100036.97;;;17.91;93.32
75192;BME280;63771;52.580;9.734;2023-07-24T02:58:15;100043.75;;;17.89;93.14
75192;BME280;63771;52.580;9.734;2023-07-24T03:00:40;100041.09;;;17.87;94.08
75192;BME280;63771;52.580;9.734;2023-07-24T03:03:05;100033.31;;;17.86;93.90
75192;BME280;63771;52.580;9.734;2023-07-24T03:05:31;100031.59;;;17.86;93.48
75192;BME280;63771;52.580;9.734;2023-07-24T03:07:58;100029.91;;;17.87;93.73
75192;BME280;63771;52.580;9.734;2023-07-24T03:10:24;100025.63;;;17.87;93.31
75192;BME280;63771;52.580;9.734;2023-07-24T03:12:49;100024.75;;;17.87;94.47
75192;BME280;63771;52.580;9.734;2023-07-24T03:15:14;100026.56;;;17.89;93.82
75192;BME280;63771;52.580;9.734;2023-07-24T03:17:40;100036.00;;;17.89;94.41
75192;BME280;63771;52.580;9.734;2023-07-24T03:20:23;100026.50;;;17.88;95.01
75192;BME280;63771;52.580;9.734;2023-07-24T03:22:48;100029.91;;;17.87;95.13
75192;BME280;63771;52.580;9.734;2023-07-24T03:25:14;100027.31;;;17.87;94.50
75192;BME280;63771;52.580;9.734;2023-07-24T03:27:39;100032.47;;;17.87;94.41
75192;BME280;63771;52.580;9.734;2023-07-24T03:30:05;100029.91;;;17.87;95.10
75192;BME280;63771;52.580;9.734;2023-07-24T03:32:30;100031.66;;;17.88;94.90
75192;BME280;63771;52.580;9.734;2023-07-24T03:34:56;100026.50;;;17.88;94.83
75192;BME280;63771;52.580;9.734;2023-07-24T03:37:21;100013.66;;;17.89;94.61
75192;BME280;63771;52.580;9.734;2023-07-24T03:39:46;100018.88;;;17.91;95.18
75192;BME280;63771;52.580;9.734;2023-07-24T03:42:12;100021.59;;;17.94;94.86
75192;BME280;63771;52.580;9.734;2023-07-24T03:44:39;100013.00;;;17.95;94.38
75192;BME280;63771;52.580;9.734;2023-07-24T03:47:05;100004.47;;;17.96;95.15
75192;BME280;63771;52.580;9.734;2023-07-24T03:49:30;100007.94;;;17.96;95.48
75192;BME280;63771;52.580;9.734;2023-07-24T03:51:56;100007.09;;;17.97;95.52
75192;BME280;63771;52.580;9.734;2023-07-24T03:54:21;100002.81;;;17.98;95.54
75192;BME280;63771;52.580;9.734;2023-07-24T03:56:46;99995.97;;;17.98;94.97
75192;BME280;63771;52.580;9.734;2023-07-24T03:59:12;99998.53;;;17.98;95.34
75192;BME280;63771;52.580;9.734;2023-07-24T04:01:37;99990.78;;;17.98;94.68
75192;BME280;63771;52.580;9.734;2023-07-24T04:04:02;99991.66;;;17.99;95.21
75192;BME280;63771;52.580;9.734;2023-07-24T04:06:28;99991.66;;;17.99;95.60
75192;BME280;63771;52.580;9.734;2023-07-24T04:08:53;99990.84;;;18.00;95.85
75192;BME280;63771;52.580;9.734;2023-07-24T04:11:18;99996.97;;;18.02;96.13
75192;BME280;63771;52.580;9.734;2023-07-24T04:13:44;99991.03;;;18.05;96.11
75192;BME280;63771;52.580;9.734;2023-07-24T04:16:09;99989.34;;;18.05;96.31
75192;BME280;63771;52.580;9.734;2023-07-24T04:18:34;99987.72;;;18.07;96.44
75192;BME280;63771;52.580;9.734;2023-07-24T04:21:00;99981.72;;;18.08;96.86
75192;BME280;63771;52.580;9.734;2023-07-24T04:23:25;99976.59;;;18.10;96.47
75192;BME280;63771;52.580;9.734;2023-07-24T04:25:50;99978.44;;;18.12;96.58
75192;BME280;63771;52.580;9.734;2023-07-24T04:28:16;99988.88;;;18.15;95.72
75192;BME280;63771;52.580;9.734;2023-07-24T04:30:41;99985.47;;;18.16;96.23
75192;BME280;63771;52.580;9.734;2023-07-24T04:33:06;99980.44;;;18.19;96.43
75192;BME280;63771;52.580;9.734;2023-07-24T04:35:32;99987.44;;;18.22;96.51
75192;BME280;63771;52.580;9.734;2023-07-24T04:37:57;99972.00;;;18.23;96.17
75192;BME280;63771;52.580;9.734;2023-07-24T04:40:23;99964.25;;;18.23;96.19
75192;BME280;63771;52.580;9.734;2023-07-24T04:42:49;99958.38;;;18.28;95.87
75192;BME280;63771;52.580;9.734;2023-07-24T04:45:14;99952.41;;;18.29;95.75
75192;BME280;63771;52.580;9.734;2023-07-24T04:47:39;99955.94;;;18.32;95.33
75192;BME280;63771;52.580;9.734;2023-07-24T04:50:05;99952.63;;;18.35;95.70
75192;BME280;63771;52.580;9.734;2023-07-24T04:52:31;99957.00;;;18.37;95.85
75192;BME280;63771;52.580;9.734;2023-07-24T04:54:56;99948.50;;;18.40;95.35
75192;BME280;63771;52.580;9.734;2023-07-24T04:57:21;99946.84;;;18.42;95.33
75192;BME280;63771;52.580;9.734;2023-07-24T04:59:47;99937.47;;;18.44;95.28
75192;BME280;63771;52.580;9.734;2023-07-24T05:02:12;99932.19;;;18.41;95.61
75192;BME280;63771;52.580;9.734;2023-07-24T05:04:37;99934.91;;;18.44;95.48
75192;BME280;63771;52.580;9.734;2023-07-24T05:07:03;99929.78;;;18.45;94.85
75192;BME280;63771;52.580;9.734;2023-07-24T05:09:28;99940.25;;;18.48;95.34
75192;BME280;63771;52.580;9.734;2023-07-24T05:11:53;99929.13;;;18.51;95.47
75192;BME280;63771;52.580;9.734;2023-07-24T05:14:19;99930.13;;;18.55;96.04
75192;BME280;63771;52.580;9.734;2023-07-24T05:16:44;99918.13;;;18.57;95.74
75192;BME280;63771;52.580;9.734;2023-07-24T05:19:09;99927.81;;;18.62;96.13
75192;BME280;63771;52.580;9.734;2023-07-24T05:21:35;99921.94;;;18.66;96.60
75192;BME280;63771;52.580;9.734;2023-07-24T05:24:00;99922.16;;;18.71;97.18
75192;BME280;63771;52.580;9.734;2023-07-24T05:26:25;99916.19;;;18.73;95.94
75192;BME280;63771;52.580;9.734;2023-07-24T05:28:51;99924.94;;;18.77;96.45
75192;BME280;63771;52.580;9.734;2023-07-24T05:31:18;99928.53;;;18.81;95.38
75192;BME280;63771;52.580;9.734;2023-07-24T05:33:43;99926.88;;;18.83;95.95
75192;BME280;63771;52.580;9.734;2023-07-24T05:36:08;99922.69;;;18.86;95.96
75192;BME280;63771;52.580;9.734;2023-07-24T05:38:34;99916.75;;;18.89;95.30
75192;BME280;63771;52.580;9.734;2023-07-24T05:41:02;99916.84;;;18.92;95.93
75192;BME280;63771;52.580;9.734;2023-07-24T05:43:28;99910.97;;;18.96;95.83
75192;BME280;63771;52.580;9.734;2023-07-24T05:45:55;99906.72;;;18.98;96.51
75192;BME280;63771;52.580;9.734;2023-07-24T05:48:21;99905.97;;;19.00;95.86
75192;BME280;63771;52.580;9.734;2023-07-24T05:50:46;99907.78;;;19.03;96.74
75192;BME280;63771;52.580;9.734;2023-07-24T05:53:13;99909.66;;;19.07;96.46
75192;BME280;63771;52.580;9.734;2023-07-24T05:55:38;99914.91;;;19.10;96.51
75192;BME280;63771;52.580;9.734;2023-07-24T05:58:03;99905.47;;;19.11;96.07
75192;BME280;63771;52.580;9.734;2023-07-24T06:00:29;99903.75;;;19.11;94.91
75192;BME280;63771;52.580;9.734;2023-07-24T06:02:54;99891.75;;;19.13;94.59
75192;BME280;63771;52.580;9.734;2023-07-24T06:05:20;99879.66;;;19.12;95.00
75192;BME280;63771;52.580;9.734;2023-07-24T06:07:46;99877.06;;;19.12;94.64
75192;BME280;63771;52.580;9.734;2023-07-24T06:10:12;99886.56;;;19.13;95.03
75192;BME280;63771;52.580;9.734;2023-07-24T06:12:37;99883.94;;;19.12;96.00
75192;BME280;63771;52.580;9.734;2023-07-24T06:15:03;99880.53;;;19.13;95.79
75192;BME280;63771;52.580;9.734;2023-07-24T06:17:28;99885.75;;;19.14;95.66
75192;BME280;63771;52.580;9.734;2023-07-24T06:19:54;99880.59;;;19.16;96.46
75192;BME280;63771;52.580;9.734;2023-07-24T06:22:19;99865.88;;;19.13;96.12
75192;BME280;63771;52.580;9.734;2023-07-24T06:24:45;99867.63;;;19.14;95.42
75192;BME280;63771;52.580;9.734;2023-07-24T06:27:10;99866.75;;;19.14;96.02
75192;BME280;63771;52.580;9.734;2023-07-24T06:29:35;99857.28;;;19.14;96.24
75192;BME280;63771;52.580;9.734;2023-07-24T06:32:00;99865.09;;;19.16;96.16
75192;BME280;63771;52.580;9.734;2023-07-24T06:34:26;99849.53;;;19.14;96.32
75192;BME280;63771;52.580;9.734;2023-07-24T06:36:51;99856.41;;;19.14;96.01
75192;BME280;63771;52.580;9.734;2023-07-24T06:39:16;99861.50;;;19.11;96.13
75192;BME280;63771;52.580;9.734;2023-07-24T06:41:42;99860.56;;;19.09;96.23
75192;BME280;63771;52.580;9.734;2023-07-24T06:44:07;99867.44;;;19.08;95.99
75192;BME280;63771;52.580;9.734;2023-07-24T06:46:33;99874.28;;;19.06;95.81
75192;BME280;63771;52.580;9.734;2023-07-24T06:48:58;99873.28;;;19.02;96.00
75192;BME280;63771;52.580;9.734;2023-07-24T06:51:23;99874.03;;;19.00;96.34
75192;BME280;63771;52.580;9.734;2023-07-24T06:53:49;99873.13;;;18.98;95.93
75192;BME280;63771;52.580;9.734;2023-07-24T06:56:14;99885.94;;;18.95;96.23
75192;BME280;63771;52.580;9.734;2023-07-24T06:58:39;99882.38;;;18.91;95.76
75192;BME280;63771;52.580;9.734;2023-07-24T07:01:06;99893.47;;;18.89;95.98
75192;BME280;63771;52.580;9.734;2023-07-24T07:03:31;99890.81;;;18.86;96.21
75192;BME280;63771;52.580;9.734;2023-07-24T07:06:01;99897.59;;;18.84;95.91
75192;BME280;63771;52.580;9.734;2023-07-24T07:08:26;99902.69;;;18.81;96.49
75192;BME280;63771;52.580;9.734;2023-07-24T07:10:59;99899.97;;;18.77;96.31
75192;BME280;63771;52.580;9.734;2023-07-24T07:13:25;99897.34;;;18.76;95.58
75192;BME280;63771;52.580;9.734;2023-07-24T07:15:50;99891.13;;;18.71;96.71
75192;BME280;63771;52.580;9.734;2023-07-24T07:18:16;99903.13;;;18.69;95.39
75192;BME280;63771;52.580;9.734;2023-07-24T07:20:48;99903.03;;;18.67;95.84
75192;BME280;63771;52.580;9.734;2023-07-24T07:23:14;99897.75;;;18.64;96.34
75192;BME280;63771;52.580;9.734;2023-07-24T07:25:39;99895.88;;;18.60;96.38
75192;BME280;63771;52.580;9.734;2023-07-24T07:28:05;99885.50;;;18.59;96.64
75192;BME280;63771;52.580;9.734;2023-07-24T07:30:30;99893.31;;;18.60;96.77
75192;BME280;63771;52.580;9.734;2023-07-24T07:32:56;99884.72;;;18.61;96.82
75192;BME280;63771;52.580;9.734;2023-07-24T07:35:21;99883.88;;;18.62;96.60
75192;BME280;63771;52.580;9.734;2023-07-24T07:37:46;99892.63;;;18.66;97.51
75192;BME280;63771;52.580;9.734;2023-07-24T07:40:12;99883.34;;;18.69;99.10
75192;BME280;63771;52.580;9.734;2023-07-24T07:42:37;99889.47;;;18.73;98.79
75192;BME280;63771;52.580;9.734;2023-07-24T07:45:03;99885.34;;;18.78;98.17
75192;BME280;63771;52.580;9.734;2023-07-24T07:47:28;99883.75;;;18.82;98.10
75192;BME280;63771;52.580;9.734;2023-07-24T07:49:53;99883.88;;;18.85;98.17
75192;BME280;63771;52.580;9.734;2023-07-24T07:52:19;99882.22;;;18.87;97.69
75192;BME280;63771;52.580;9.734;2023-07-24T07:54:47;99883.09;;;18.87;98.64
75192;BME280;63771;52.580;9.734;2023-07-24T07:57:12;99884.09;;;18.91;99.22
75192;BME280;63771;52.580;9.734;2023-07-24T07:59:38;99886.00;;;18.96;98.52
75192;BME280;63771;52.580;9.734;2023-07-24T08:02:03;99882.63;;;18.99;97.89
75192;BME280;63771;52.580;9.734;2023-07-24T08:04:28;99877.47;;;18.99;97.63
75192;BME280;63771;52.580;9.734;2023-07-24T08:06:54;99888.78;;;19.02;97.60
75192;BME280;63771;52.580;9.734;2023-07-24T08:09:19;99880.19;;;19.03;97.53
75192;BME280;63771;52.580;9.734;2023-07-24T08:11:46;99884.63;;;19.06;98.06
75192;BME280;63771;52.580;9.734;2023-07-24T08:14:12;99868.97;;;19.03;97.35
75192;BME280;63771;52.580;9.734;2023-07-24T08:16:37;99869.09;;;19.06;98.21
75192;BME280;63771;52.580;9.734;2023-07-24T08:19:02;99870.03;;;19.08;98.75
75192;BME280;63771;52.580;9.734;2023-07-24T08:21:27;99863.28;;;19.13;98.46
75192;BME280;63771;52.580;9.734;2023-07-24T08:23:53;99859.00;;;19.14;98.61
75192;BME280;63771;52.580;9.734;2023-07-24T08:26:18;99859.16;;;19.18;97.76
75192;BME280;63771;52.580;9.734;2023-07-24T08:28:43;99868.72;;;19.21;98.09
75192;BME280;63771;52.580;9.734;2023-07-24T08:31:09;99869.66;;;19.23;98.99
75192;BME280;63771;52.580;9.734;2023-07-24T08:33:35;99870.72;;;19.29;100.00
75192;BME280;63771;52.580;9.734;2023-07-24T08:36:05;99868.25;;;19.33;99.80
75192;BME280;63771;52.580;9.734;2023-07-24T08:38:31;99868.53;;;19.42;100.00
75192;BME280;63771;52.580;9.734;2023-07-24T08:41:05;99865.31;;;19.47;100.00
75192;BME280;63771;52.580;9.734;2023-07-24T08:43:31;99860.94;;;19.46;98.48
75192;BME280;63771;52.580;9.734;2023-07-24T08:45:58;99857.56;;;19.49;97.77
75192;BME280;63771;52.580;9.734;2023-07-24T08:48:26;99854.88;;;19.46;95.92
75192;BME280;63771;52.580;9.734;2023-07-24T08:50:54;99853.84;;;19.41;97.67
75192;BME280;63771;52.580;9.734;2023-07-24T08:53:21;99858.25;;;19.43;99.57
75192;BME280;63771;52.580;9.734;2023-07-24T08:55:48;99867.94;;;19.49;98.72
75192;BME280;63771;52.580;9.734;2023-07-24T08:58:14;99849.91;;;19.52;98.99
75192;BME280;63771;52.580;9.734;2023-07-24T09:00:40;99855.38;;;19.60;97.98
75192;BME280;63771;52.580;9.734;2023-07-24T09:03:05;99858.97;;;19.65;96.80
75192;BME280;63771;52.580;9.734;2023-07-24T09:05:30;99862.19;;;19.58;96.07
75192;BME280;63771;52.580;9.734;2023-07-24T09:07:56;99861.28;;;19.57;96.76
75192;BME280;63771;52.580;9.734;2023-07-24T09:10:25;99863.81;;;19.55;95.64
75192;BME280;63771;52.580;9.734;2023-07-24T09:12:51;99846.72;;;19.59;96.52
75192;BME280;63771;52.580;9.734;2023-07-24T09:15:16;99851.00;;;19.59;94.92
75192;BME280;63771;52.580;9.734;2023-07-24T09:17:51;99858.03;;;19.63;95.31
75192;BME280;63771;52.580;9.734;2023-07-24T09:20:18;99854.69;;;19.65;95.93
75192;BME280;63771;52.580;9.734;2023-07-24T09:22:53;99861.75;;;19.71;96.11
75192;BME280;63771;52.580;9.734;2023-07-24T09:25:30;99878.34;;;19.77;96.68
75192;BME280;63771;52.580;9.734;2023-07-24T09:27:57;99873.41;;;19.85;96.09
75192;BME280;63771;52.580;9.734;2023-07-24T09:30:23;99869.84;;;19.81;92.67
75192;BME280;63771;52.580;9.734;2023-07-24T09:32:53;99861.34;;;19.86;92.76
75192;BME280;63771;52.580;9.734;2023-07-24T09:35:19;99873.31;;;19.82;92.16
75192;BME280;63771;52.580;9.734;2023-07-24T09:37:45;99870.00;;;19.86;92.86
75192;BME280;63771;52.580;9.734;2023-07-24T09:40:12;99855.28;;;19.85;92.38
75192;BME280;63771;52.580;9.734;2023-07-24T09:42:39;99853.47;;;19.83;93.00
75192;BME280;63771;52.580;9.734;2023-07-24T09:45:06;99859.41;;;19.78;93.30
75192;BME280;63771;52.580;9.734;2023-07-24T09:47:34;99854.25;;;19.78;93.31
75192;BME280;63771;52.580;9.734;2023-07-24T09:50:00;99847.53;;;19.85;93.74
75192;BME280;63771;52.580;9.734;2023-07-24T09:52:29;99858.03;;;19.90;91.41
75192;BME280;63771;52.580;9.734;2023-07-24T09:57:23;99847.19;;;20.03;92.61
75192;BME280;63771;52.580;9.734;2023-07-24T09:59:49;99842.38;;;20.15;93.47
75192;BME280;63771;52.580;9.734;2023-07-24T10:02:17;99842.63;;;20.24;91.92
75192;BME280;63771;52.580;9.734;2023-07-24T10:04:43;99838.63;;;20.36;92.64
75192;BME280;63771;52.580;9.734;2023-07-24T10:07:09;99843.16;;;20.43;89.33
75192;BME280;63771;52.580;9.734;2023-07-24T10:09:35;99840.78;;;20.49;89.83
75192;BME280;63771;52.580;9.734;2023-07-24T10:12:02;99834.75;;;20.50;88.55
75192;BME280;63771;52.580;9.734;2023-07-24T10:14:28;99836.50;;;20.51;88.06
75192;BME280;63771;52.580;9.734;2023-07-24T10:16:55;99828.91;;;20.57;89.79
75192;BME280;63771;52.580;9.734;2023-07-24T10:19:21;99832.41;;;20.59;87.77
75192;BME280;63771;52.580;9.734;2023-07-24T10:21:47;99837.56;;;20.57;85.01
75192;BME280;63771;52.580;9.734;2023-07-24T10:24:14;99829.94;;;20.64;87.34
75192;BME280;63771;52.580;9.734;2023-07-24T10:26:40;99824.13;;;20.72;86.70
75192;BME280;63771;52.580;9.734;2023-07-24T10:29:05;99819.13;;;20.78;86.84
75192;BME280;63771;52.580;9.734;2023-07-24T10:31:31;99814.81;;;20.79;85.52
75192;BME280;63771;52.580;9.734;2023-07-24T10:34:04;99814.81;;;20.79;85.99
75192;BME280;63771;52.580;9.734;2023-07-24T10:36:33;99812.25;;;20.80;85.52
75192;BME280;63771;52.580;9.734;2023-07-24T10:38:59;99812.34;;;20.83;86.57
75192;BME280;63771;52.580;9.734;2023-07-24T10:41:37;99806.31;;;20.84;86.08
75192;BME280;63771;52.580;9.734;2023-07-24T10:44:03;99807.16;;;20.83;86.02
75192;BME280;63771;52.580;9.734;2023-07-24T10:46:41;99809.06;;;20.92;86.58
75192;BME280;63771;52.580;9.734;2023-07-24T10:49:08;99791.97;;;20.99;90.00
75192;BME280;63771;52.580;9.734;2023-07-24T10:51:33;99795.47;;;21.01;83.82
75192;BME280;63771;52.580;9.734;2023-07-24T10:54:02;99783.50;;;21.06;83.61
75192;BME280;63771;52.580;9.734;2023-07-24T10:56:27;99784.47;;;21.09;83.31
75192;BME280;63771;52.580;9.734;2023-07-24T10:58:52;99788.78;;;21.09;84.06
75192;BME280;63771;52.580;9.734;2023-07-24T11:01:18;99800.06;;;21.11;84.76
75192;BME280;63771;52.580;9.734;2023-07-24T11:03:43;99805.22;;;21.09;87.18
75192;BME280;63771;52.580;9.734;2023-07-24T11:06:14;99809.13;;;20.94;88.62
75192;BME280;63771;52.580;9.734;2023-07-24T11:08:40;99808.56;;;20.72;87.78
75192;BME280;63771;52.580;9.734;2023-07-24T11:11:08;99820.03;;;20.49;88.90
75192;BME280;63771;52.580;9.734;2023-07-24T11:13:33;99817.69;;;20.28;89.38
75192;BME280;63771;52.580;9.734;2023-07-24T11:16:04;99836.25;;;20.13;88.37
75192;BME280;63771;52.580;9.734;2023-07-24T11:18:30;99845.63;;;19.79;88.79
75192;BME280;63771;52.580;9.734;2023-07-24T11:20:56;99828.59;;;19.59;92.34
75192;BME280;63771;52.580;9.734;2023-07-24T11:23:22;99835.47;;;19.32;94.32
75192;BME280;63771;52.580;9.734;2023-07-24T11:25:52;99826.78;;;19.04;94.95
75192;BME280;63771;52.580;9.734;2023-07-24T11:28:18;99830.50;;;18.87;97.31
75192;BME280;63771;52.580;9.734;2023-07-24T11:30:43;99836.41;;;18.83;98.72
75192;BME280;63771;52.580;9.734;2023-07-24T11:33:11;99844.06;;;18.80;97.63
75192;BME280;63771;52.580;9.734;2023-07-24T11:35:37;99835.56;;;18.84;98.26
75192;BME280;63771;52.580;9.734;2023-07-24T11:38:08;99835.56;;;18.84;97.08
75192;BME280;63771;52.580;9.734;2023-07-24T11:40:41;99837.41;;;18.86;98.29
75192;BME280;63771;52.580;9.734;2023-07-24T11:43:18;99838.16;;;18.84;97.69
75192;BME280;63771;52.580;9.734;2023-07-24T11:45:45;99837.22;;;18.82;97.88
75192;BME280;63771;52.580;9.734;2023-07-24T11:48:12;99846.03;;;18.87;99.45
75192;BME280;63771;52.580;9.734;2023-07-24T11:50:49;99842.88;;;18.95;99.58
75192;BME280;63771;52.580;9.734;2023-07-24T11:53:28;99839.66;;;19.02;99.32
75192;BME280;63771;52.580;9.734;2023-07-24T11:55:56;99832.97;;;19.09;99.77
75192;BME280;63771;52.580;9.734;2023-07-24T11:58:25;99833.19;;;19.15;99.43
75192;BME280;63771;52.580;9.734;2023-07-24T12:00:51;99828.31;;;19.24;100.00
75192;BME280;63771;52.580;9.734;2023-07-24T12:03:21;99819.19;;;19.36;100.00
75192;BME280;63771;52.580;9.734;2023-07-24T12:05:46;99816.03;;;19.44;100.00
75192;BME280;63771;52.580;9.734;2023-07-24T12:08:12;99810.28;;;19.53;100.00
75192;BME280;63771;52.580;9.734;2023-07-24T12:10:40;99803.88;;;19.69;100.00
75192;BME280;63771;52.580;9.734;2023-07-24T12:13:06;99797.34;;;19.81;100.00
75192;BME280;63771;52.580;9.734;2023-07-24T12:15:32;99796.91;;;19.95;100.00
75192;BME280;63771;52.580;9.734;2023-07-24T12:17:59;99789.38;;;20.04;97.37
75192;BME280;63771;52.580;9.734;2023-07-24T12:20:26;99789.56;;;20.10;98.04
75192;BME280;63771;52.580;9.734;2023-07-24T12:22:51;99791.50;;;20.17;96.58
75192;BME280;63771;52.580;9.734;2023-07-24T12:25:16;99790.88;;;20.26;96.44
75192;BME280;63771;52.580;9.734;2023-07-24T12:27:42;99788.50;;;20.33;97.20
75192;BME280;63771;52.580;9.734;2023-07-24T12:30:08;99790.41;;;20.41;95.77
75192;BME280;63771;52.580;9.734;2023-07-24T12:32:34;99794.00;;;20.46;94.47
75192;BME280;63771;52.580;9.734;2023-07-24T12:34:59;99786.38;;;20.50;94.23
75192;BME280;63771;52.580;9.734;2023-07-24T12:37:25;99784.78;;;20.55;95.46
75192;BME280;63771;52.580;9.734;2023-07-24T12:39:50;99781.56;;;20.64;94.45
75192;BME280;63771;52.580;9.734;2023-07-24T12:42:15;99780.81;;;20.68;92.44
75192;BME280;63771;52.580;9.734;2023-07-24T12:44:41;99778.28;;;20.71;93.88
75192;BME280;63771;52.580;9.734;2023-07-24T12:47:07;99781.84;;;20.75;93.54
75192;BME280;63771;52.580;9.734;2023-07-24T12:49:33;99775.94;;;20.80;93.40
75192;BME280;63771;52.580;9.734;2023-07-24T12:51:59;99769.16;;;20.85;94.81
75192;BME280;63771;52.580;9.734;2023-07-24T12:54:24;99758.06;;;20.91;94.35
75192;BME280;63771;52.580;9.734;2023-07-24T12:56:50;99757.31;;;20.97;93.12